Aviation Digital Data Service (ADDS)

Output produced by METARs form (1115 UTC 17 June 2019)
found at http://www.aviationweather.gov/metar/data/
 
METAR text: RJGG 171100Z 32011KT 9999 FEW030 SCT/// 22/15 Q1010 NOSIG
Conditions at: RJGG (NAGOYA/CHUBU , JP) observed 1100 UTC 17 June 2019
Temperature: 22.0°C (72°F)
Dewpoint: 15.0°C (59°F) [RH = 65%]
Pressure (altimeter): 29.82 inches Hg (1010.0 mb)
Winds: from the NW (320 degrees) at 13 MPH (11 knots; 5.7 m/s)
Visibility: 6 or more miles (10+ km)
Ceiling: at least 12,000 feet AGL
Clouds: few clouds at 3000 feet AGL
Weather: no significant weather observed at this time

METAR text: RJGG 171030Z 31011KT 9999 FEW030 22/14 Q1010 NOSIG
Conditions at: RJGG (NAGOYA/CHUBU , JP) observed 1030 UTC 17 June 2019
Temperature: 22.0°C (72°F)
Dewpoint: 14.0°C (57°F) [RH = 60%]
Pressure (altimeter): 29.82 inches Hg (1010.0 mb)
Winds: from the NW (310 degrees) at 13 MPH (11 knots; 5.7 m/s)
Visibility: 6 or more miles (10+ km)
Ceiling: at least 12,000 feet AGL
Clouds: few clouds at 3000 feet AGL
Weather: no significant weather observed at this time

METAR text: RJGG 171000Z 31014KT 9999 FEW030 22/15 Q1010 NOSIG
Conditions at: RJGG (NAGOYA/CHUBU , JP) observed 1000 UTC 17 June 2019
Temperature: 22.0°C (72°F)
Dewpoint: 15.0°C (59°F) [RH = 65%]
Pressure (altimeter): 29.82 inches Hg (1010.0 mb)
Winds: from the NW (310 degrees) at 16 MPH (14 knots; 7.2 m/s)
Visibility: 6 or more miles (10+ km)
Ceiling: at least 12,000 feet AGL
Clouds: few clouds at 3000 feet AGL
Weather: no significant weather observed at this time

METAR text: RJGG 170930Z 32015KT 9999 FEW030 23/14 Q1010 NOSIG
Conditions at: RJGG (NAGOYA/CHUBU , JP) observed 0930 UTC 17 June 2019
Temperature: 23.0°C (73°F)
Dewpoint: 14.0°C (57°F) [RH = 57%]
Pressure (altimeter): 29.82 inches Hg (1010.0 mb)
Winds: from the NW (320 degrees) at 17 MPH (15 knots; 7.7 m/s)
Visibility: 6 or more miles (10+ km)
Ceiling: at least 12,000 feet AGL
Clouds: few clouds at 3000 feet AGL
Weather: no significant weather observed at this time

METAR text: RJGG 170900Z 32015KT 9999 FEW030 23/15 Q1010 NOSIG
Conditions at: RJGG (NAGOYA/CHUBU , JP) observed 0900 UTC 17 June 2019
Temperature: 23.0°C (73°F)
Dewpoint: 15.0°C (59°F) [RH = 61%]
Pressure (altimeter): 29.82 inches Hg (1010.0 mb)
Winds: from the NW (320 degrees) at 17 MPH (15 knots; 7.7 m/s)
Visibility: 6 or more miles (10+ km)
Ceiling: at least 12,000 feet AGL
Clouds: few clouds at 3000 feet AGL
Weather: no significant weather observed at this time

METAR text: RJGG 170830Z 32015KT 9999 FEW030 24/15 Q1009 NOSIG
Conditions at: RJGG (NAGOYA/CHUBU , JP) observed 0830 UTC 17 June 2019
Temperature: 24.0°C (75°F)
Dewpoint: 15.0°C (59°F) [RH = 57%]
Pressure (altimeter): 29.79 inches Hg (1009.0 mb)
Winds: from the NW (320 degrees) at 17 MPH (15 knots; 7.7 m/s)
Visibility: 6 or more miles (10+ km)
Ceiling: at least 12,000 feet AGL
Clouds: few clouds at 3000 feet AGL
Weather: no significant weather observed at this time

METAR text: RJGG 170800Z 32015KT 9999 FEW025 SCT/// 24/15 Q1009 NOSIG
Conditions at: RJGG (NAGOYA/CHUBU , JP) observed 0800 UTC 17 June 2019
Temperature: 24.0°C (75°F)
Dewpoint: 15.0°C (59°F) [RH = 57%]
Pressure (altimeter): 29.79 inches Hg (1009.0 mb)
Winds: from the NW (320 degrees) at 17 MPH (15 knots; 7.7 m/s)
Visibility: 6 or more miles (10+ km)
Ceiling: at least 12,000 feet AGL
Clouds: few clouds at 2500 feet AGL
Weather: no significant weather observed at this time

METAR text: RJGG 170730Z 32013KT 9999 FEW025 24/16 Q1009 NOSIG
Conditions at: RJGG (NAGOYA/CHUBU , JP) observed 0730 UTC 17 June 2019
Temperature: 24.0°C (75°F)
Dewpoint: 16.0°C (61°F) [RH = 61%]
Pressure (altimeter): 29.79 inches Hg (1009.0 mb)
Winds: from the NW (320 degrees) at 15 MPH (13 knots; 6.7 m/s)
Visibility: 6 or more miles (10+ km)
Ceiling: at least 12,000 feet AGL
Clouds: few clouds at 2500 feet AGL
Weather: no significant weather observed at this time

METAR text: RJGG 170700Z 31013KT 9999 FEW025 BKN/// 24/16 Q1009 NOSIG
Conditions at: RJGG (NAGOYA/CHUBU , JP) observed 0700 UTC 17 June 2019
Temperature: 24.0°C (75°F)
Dewpoint: 16.0°C (61°F) [RH = 61%]
Pressure (altimeter): 29.79 inches Hg (1009.0 mb)
Winds: from the NW (310 degrees) at 15 MPH (13 knots; 6.7 m/s)
Visibility: 6 or more miles (10+ km)
Ceiling: at least 12,000 feet AGL
Clouds: few clouds at 2500 feet AGL
Weather: no significant weather observed at this time

METAR text: RJGG 170630Z 31013KT 9999 FEW025 BKN/// 25/15 Q1009 NOSIG
Conditions at: RJGG (NAGOYA/CHUBU , JP) observed 0630 UTC 17 June 2019
Temperature: 25.0°C (77°F)
Dewpoint: 15.0°C (59°F) [RH = 54%]
Pressure (altimeter): 29.79 inches Hg (1009.0 mb)
Winds: from the NW (310 degrees) at 15 MPH (13 knots; 6.7 m/s)
Visibility: 6 or more miles (10+ km)
Ceiling: at least 12,000 feet AGL
Clouds: few clouds at 2500 feet AGL
Weather: no significant weather observed at this time

METAR text: RJGG 170600Z 31014KT 9999 FEW025 SCT/// 24/16 Q1009 NOSIG
Conditions at: RJGG (NAGOYA/CHUBU , JP) observed 0600 UTC 17 June 2019
Temperature: 24.0°C (75°F)
Dewpoint: 16.0°C (61°F) [RH = 61%]
Pressure (altimeter): 29.79 inches Hg (1009.0 mb)
Winds: from the NW (310 degrees) at 16 MPH (14 knots; 7.2 m/s)
Visibility: 6 or more miles (10+ km)
Ceiling: at least 12,000 feet AGL
Clouds: few clouds at 2500 feet AGL
Weather: no significant weather observed at this time

METAR text: RJGG 170530Z 31015KT 9999 FEW020 BKN/// 25/15 Q1010 NOSIG
Conditions at: RJGG (NAGOYA/CHUBU , JP) observed 0530 UTC 17 June 2019
Temperature: 25.0°C (77°F)
Dewpoint: 15.0°C (59°F) [RH = 54%]
Pressure (altimeter): 29.82 inches Hg (1010.0 mb)
Winds: from the NW (310 degrees) at 17 MPH (15 knots; 7.7 m/s)
Visibility: 6 or more miles (10+ km)
Ceiling: at least 12,000 feet AGL
Clouds: few clouds at 2000 feet AGL
Weather: no significant weather observed at this time

METAR text: RJGG 170500Z 31013KT 9999 FEW020 BKN/// 24/15 Q1010 NOSIG
Conditions at: RJGG (NAGOYA/CHUBU , JP) observed 0500 UTC 17 June 2019
Temperature: 24.0°C (75°F)
Dewpoint: 15.0°C (59°F) [RH = 57%]
Pressure (altimeter): 29.82 inches Hg (1010.0 mb)
Winds: from the NW (310 degrees) at 15 MPH (13 knots; 6.7 m/s)
Visibility: 6 or more miles (10+ km)
Ceiling: at least 12,000 feet AGL
Clouds: few clouds at 2000 feet AGL
Weather: no significant weather observed at this time

METAR text: RJGG 170430Z 31016KT 9999 FEW020 BKN/// 24/15 Q1010 NOSIG
Conditions at: RJGG (NAGOYA/CHUBU , JP) observed 0430 UTC 17 June 2019
Temperature: 24.0°C (75°F)
Dewpoint: 15.0°C (59°F) [RH = 57%]
Pressure (altimeter): 29.82 inches Hg (1010.0 mb)
Winds: from the NW (310 degrees) at 18 MPH (16 knots; 8.2 m/s)
Visibility: 6 or more miles (10+ km)
Ceiling: at least 12,000 feet AGL
Clouds: few clouds at 2000 feet AGL
Weather: no significant weather observed at this time

METAR text: RJGG 170400Z 31015KT 9999 FEW020 BKN/// 24/15 Q1010 NOSIG
Conditions at: RJGG (NAGOYA/CHUBU , JP) observed 0400 UTC 17 June 2019
Temperature: 24.0°C (75°F)
Dewpoint: 15.0°C (59°F) [RH = 57%]
Pressure (altimeter): 29.82 inches Hg (1010.0 mb)
Winds: from the NW (310 degrees) at 17 MPH (15 knots; 7.7 m/s)
Visibility: 6 or more miles (10+ km)
Ceiling: at least 12,000 feet AGL
Clouds: few clouds at 2000 feet AGL
Weather: no significant weather observed at this time

METAR text: RJGG 170330Z 30014KT 9999 FEW020 BKN/// 24/15 Q1010 NOSIG
Conditions at: RJGG (NAGOYA/CHUBU , JP) observed 0330 UTC 17 June 2019
Temperature: 24.0°C (75°F)
Dewpoint: 15.0°C (59°F) [RH = 57%]
Pressure (altimeter): 29.82 inches Hg (1010.0 mb)
Winds: from the WNW (300 degrees) at 16 MPH (14 knots; 7.2 m/s)
Visibility: 6 or more miles (10+ km)
Ceiling: at least 12,000 feet AGL
Clouds: few clouds at 2000 feet AGL
Weather: no significant weather observed at this time

METAR text: RJGG 170300Z 29017KT 9999 FEW020 BKN/// 23/15 Q1010 NOSIG
Conditions at: RJGG (NAGOYA/CHUBU , JP) observed 0300 UTC 17 June 2019
Temperature: 23.0°C (73°F)
Dewpoint: 15.0°C (59°F) [RH = 61%]
Pressure (altimeter): 29.82 inches Hg (1010.0 mb)
Winds: from the WNW (290 degrees) at 20 MPH (17 knots; 8.7 m/s)
Visibility: 6 or more miles (10+ km)
Ceiling: at least 12,000 feet AGL
Clouds: few clouds at 2000 feet AGL
Weather: no significant weather observed at this time

METAR text: RJGG 170230Z 29014KT 9999 FEW020 BKN/// 23/14 Q1010 NOSIG
Conditions at: RJGG (NAGOYA/CHUBU , JP) observed 0230 UTC 17 June 2019
Temperature: 23.0°C (73°F)
Dewpoint: 14.0°C (57°F) [RH = 57%]
Pressure (altimeter): 29.82 inches Hg (1010.0 mb)
Winds: from the WNW (290 degrees) at 16 MPH (14 knots; 7.2 m/s)
Visibility: 6 or more miles (10+ km)
Ceiling: at least 12,000 feet AGL
Clouds: few clouds at 2000 feet AGL
Weather: no significant weather observed at this time

METAR text: RJGG 170200Z 30009KT 9999 FEW020 BKN/// 23/14 Q1010 NOSIG
Conditions at: RJGG (NAGOYA/CHUBU , JP) observed 0200 UTC 17 June 2019
Temperature: 23.0°C (73°F)
Dewpoint: 14.0°C (57°F) [RH = 57%]
Pressure (altimeter): 29.82 inches Hg (1010.0 mb)
Winds: from the WNW (300 degrees) at 10 MPH (9 knots; 4.6 m/s)
Visibility: 6 or more miles (10+ km)
Ceiling: at least 12,000 feet AGL
Clouds: few clouds at 2000 feet AGL
Weather: no significant weather observed at this time

METAR text: RJGG 170130Z 30009KT 9999 FEW020 BKN/// 23/14 Q1011 NOSIG
Conditions at: RJGG (NAGOYA/CHUBU , JP) observed 0130 UTC 17 June 2019
Temperature: 23.0°C (73°F)
Dewpoint: 14.0°C (57°F) [RH = 57%]
Pressure (altimeter): 29.85 inches Hg (1011.0 mb)
Winds: from the WNW (300 degrees) at 10 MPH (9 knots; 4.6 m/s)
Visibility: 6 or more miles (10+ km)
Ceiling: at least 12,000 feet AGL
Clouds: few clouds at 2000 feet AGL
Weather: no significant weather observed at this time

METAR text: RJGG 170100Z 30012KT 9999 FEW020 SCT/// 23/13 Q1011 NOSIG
Conditions at: RJGG (NAGOYA/CHUBU , JP) observed 0100 UTC 17 June 2019
Temperature: 23.0°C (73°F)
Dewpoint: 13.0°C (55°F) [RH = 53%]
Pressure (altimeter): 29.85 inches Hg (1011.0 mb)
Winds: from the WNW (300 degrees) at 14 MPH (12 knots; 6.2 m/s)
Visibility: 6 or more miles (10+ km)
Ceiling: at least 12,000 feet AGL
Clouds: few clouds at 2000 feet AGL
Weather: no significant weather observed at this time

METAR text: RJGG 170030Z 31013KT 9999 FEW020 BKN/// 22/13 Q1011 NOSIG
Conditions at: RJGG (NAGOYA/CHUBU , JP) observed 0030 UTC 17 June 2019
Temperature: 22.0°C (72°F)
Dewpoint: 13.0°C (55°F) [RH = 57%]
Pressure (altimeter): 29.85 inches Hg (1011.0 mb)
Winds: from the NW (310 degrees) at 15 MPH (13 knots; 6.7 m/s)
Visibility: 6 or more miles (10+ km)
Ceiling: at least 12,000 feet AGL
Clouds: few clouds at 2000 feet AGL
Weather: no significant weather observed at this time

METAR text: RJGG 170000Z 32015KT 9999 FEW020 BKN/// 21/13 Q1011 NOSIG
Conditions at: RJGG (NAGOYA/CHUBU , JP) observed 0000 UTC 17 June 2019
Temperature: 21.0°C (70°F)
Dewpoint: 13.0°C (55°F) [RH = 60%]
Pressure (altimeter): 29.85 inches Hg (1011.0 mb)
Winds: from the NW (320 degrees) at 17 MPH (15 knots; 7.7 m/s)
Visibility: 6 or more miles (10+ km)
Ceiling: at least 12,000 feet AGL
Clouds: few clouds at 2000 feet AGL
Weather: no significant weather observed at this time

METAR text: RJGG 162330Z 31018KT 9999 FEW020 BKN/// 21/13 Q1010 NOSIG
Conditions at: RJGG (NAGOYA/CHUBU , JP) observed 2330 UTC 16 June 2019
Temperature: 21.0°C (70°F)
Dewpoint: 13.0°C (55°F) [RH = 60%]
Pressure (altimeter): 29.82 inches Hg (1010.0 mb)
Winds: from the NW (310 degrees) at 21 MPH (18 knots; 9.3 m/s)
Visibility: 6 or more miles (10+ km)
Ceiling: at least 12,000 feet AGL
Clouds: few clouds at 2000 feet AGL
Weather: no significant weather observed at this time

METAR text: RJGG 162300Z 32021KT 9999 FEW020 BKN/// 21/13 Q1010 NOSIG
Conditions at: RJGG (NAGOYA/CHUBU , JP) observed 2300 UTC 16 June 2019
Temperature: 21.0°C (70°F)
Dewpoint: 13.0°C (55°F) [RH = 60%]
Pressure (altimeter): 29.82 inches Hg (1010.0 mb)
Winds: from the NW (320 degrees) at 24 MPH (21 knots; 10.8 m/s)
Visibility: 6 or more miles (10+ km)
Ceiling: at least 12,000 feet AGL
Clouds: few clouds at 2000 feet AGL
Weather: no significant weather observed at this time

METAR text: RJGG 162230Z 31019KT 9999 FEW020 BKN/// 20/12 Q1010 NOSIG
Conditions at: RJGG (NAGOYA/CHUBU , JP) observed 2230 UTC 16 June 2019
Temperature: 20.0°C (68°F)
Dewpoint: 12.0°C (54°F) [RH = 60%]
Pressure (altimeter): 29.82 inches Hg (1010.0 mb)
Winds: from the NW (310 degrees) at 22 MPH (19 knots; 9.8 m/s)
Visibility: 6 or more miles (10+ km)
Ceiling: at least 12,000 feet AGL
Clouds: few clouds at 2000 feet AGL
Weather: no significant weather observed at this time

METAR text: RJGG 162200Z 31018KT 9999 FEW020 BKN/// 20/13 Q1010 NOSIG
Conditions at: RJGG (NAGOYA/CHUBU , JP) observed 2200 UTC 16 June 2019
Temperature: 20.0°C (68°F)
Dewpoint: 13.0°C (55°F) [RH = 64%]
Pressure (altimeter): 29.82 inches Hg (1010.0 mb)
Winds: from the NW (310 degrees) at 21 MPH (18 knots; 9.3 m/s)
Visibility: 6 or more miles (10+ km)
Ceiling: at least 12,000 feet AGL
Clouds: few clouds at 2000 feet AGL
Weather: no significant weather observed at this time

METAR text: RJGG 162130Z 31020KT 9999 FEW020 SCT/// 20/13 Q1010 NOSIG
Conditions at: RJGG (NAGOYA/CHUBU , JP) observed 2130 UTC 16 June 2019
Temperature: 20.0°C (68°F)
Dewpoint: 13.0°C (55°F) [RH = 64%]
Pressure (altimeter): 29.82 inches Hg (1010.0 mb)
Winds: from the NW (310 degrees) at 23 MPH (20 knots; 10.3 m/s)
Visibility: 6 or more miles (10+ km)
Ceiling: at least 12,000 feet AGL
Clouds: few clouds at 2000 feet AGL
Weather: no significant weather observed at this time

METAR text: RJGG 162100Z 31020KT 9999 FEW020 SCT/// 19/14 Q1009 NOSIG
Conditions at: RJGG (NAGOYA/CHUBU , JP) observed 2100 UTC 16 June 2019
Temperature: 19.0°C (66°F)
Dewpoint: 14.0°C (57°F) [RH = 73%]
Pressure (altimeter): 29.79 inches Hg (1009.0 mb)
Winds: from the NW (310 degrees) at 23 MPH (20 knots; 10.3 m/s)
Visibility: 6 or more miles (10+ km)
Ceiling: at least 12,000 feet AGL
Clouds: few clouds at 2000 feet AGL
Weather: no significant weather observed at this time

METAR text: RJGG 162030Z 30021KT 9999 FEW020 BKN/// 19/13 Q1009 NOSIG
Conditions at: RJGG (NAGOYA/CHUBU , JP) observed 2030 UTC 16 June 2019
Temperature: 19.0°C (66°F)
Dewpoint: 13.0°C (55°F) [RH = 68%]
Pressure (altimeter): 29.79 inches Hg (1009.0 mb)
Winds: from the WNW (300 degrees) at 24 MPH (21 knots; 10.8 m/s)
Visibility: 6 or more miles (10+ km)
Ceiling: at least 12,000 feet AGL
Clouds: few clouds at 2000 feet AGL
Weather: no significant weather observed at this time

METAR text: RJGG 162000Z 28016KT 9999 FEW020 BKN/// 19/14 Q1009 NOSIG
Conditions at: RJGG (NAGOYA/CHUBU , JP) observed 2000 UTC 16 June 2019
Temperature: 19.0°C (66°F)
Dewpoint: 14.0°C (57°F) [RH = 73%]
Pressure (altimeter): 29.79 inches Hg (1009.0 mb)
Winds: from the W (280 degrees) at 18 MPH (16 knots; 8.2 m/s)
Visibility: 6 or more miles (10+ km)
Ceiling: at least 12,000 feet AGL
Clouds: few clouds at 2000 feet AGL
Weather: no significant weather observed at this time

METAR text: RJGG 161930Z 28017KT 9999 FEW030 BKN/// 19/14 Q1009 NOSIG
Conditions at: RJGG (NAGOYA/CHUBU , JP) observed 1930 UTC 16 June 2019
Temperature: 19.0°C (66°F)
Dewpoint: 14.0°C (57°F) [RH = 73%]
Pressure (altimeter): 29.79 inches Hg (1009.0 mb)
Winds: from the W (280 degrees) at 20 MPH (17 knots; 8.7 m/s)
Visibility: 6 or more miles (10+ km)
Ceiling: at least 12,000 feet AGL
Clouds: few clouds at 3000 feet AGL
Weather: no significant weather observed at this time

METAR text: RJGG 161900Z 30018KT 9999 FEW030 BKN/// 19/14 Q1008 NOSIG
Conditions at: RJGG (NAGOYA/CHUBU , JP) observed 1900 UTC 16 June 2019
Temperature: 19.0°C (66°F)
Dewpoint: 14.0°C (57°F) [RH = 73%]
Pressure (altimeter): 29.76 inches Hg (1008.0 mb)
Winds: from the WNW (300 degrees) at 21 MPH (18 knots; 9.3 m/s)
Visibility: 6 or more miles (10+ km)
Ceiling: at least 12,000 feet AGL
Clouds: few clouds at 3000 feet AGL
Weather: no significant weather observed at this time

METAR text: RJGG 161830Z 30014KT 9999 FEW030 BKN/// 19/14 Q1008 NOSIG
Conditions at: RJGG (NAGOYA/CHUBU , JP) observed 1830 UTC 16 June 2019
Temperature: 19.0°C (66°F)
Dewpoint: 14.0°C (57°F) [RH = 73%]
Pressure (altimeter): 29.76 inches Hg (1008.0 mb)
Winds: from the WNW (300 degrees) at 16 MPH (14 knots; 7.2 m/s)
Visibility: 6 or more miles (10+ km)
Ceiling: at least 12,000 feet AGL
Clouds: few clouds at 3000 feet AGL
Weather: no significant weather observed at this time

METAR text: RJGG 161800Z 31018KT 9999 FEW030 19/14 Q1007 NOSIG
Conditions at: RJGG (NAGOYA/CHUBU , JP) observed 1800 UTC 16 June 2019
Temperature: 19.0°C (66°F)
Dewpoint: 14.0°C (57°F) [RH = 73%]
Pressure (altimeter): 29.73 inches Hg (1007.0 mb)
Winds: from the NW (310 degrees) at 21 MPH (18 knots; 9.3 m/s)
Visibility: 6 or more miles (10+ km)
Ceiling: at least 12,000 feet AGL
Clouds: few clouds at 3000 feet AGL
Weather: no significant weather observed at this time

METAR text: RJGG 161730Z 31022KT 9999 FEW030 19/14 Q1007 NOSIG
Conditions at: RJGG (NAGOYA/CHUBU , JP) observed 1730 UTC 16 June 2019
Temperature: 19.0°C (66°F)
Dewpoint: 14.0°C (57°F) [RH = 73%]
Pressure (altimeter): 29.73 inches Hg (1007.0 mb)
Winds: from the NW (310 degrees) at 25 MPH (22 knots; 11.3 m/s)
Visibility: 6 or more miles (10+ km)
Ceiling: at least 12,000 feet AGL
Clouds: few clouds at 3000 feet AGL
Weather: no significant weather observed at this time

METAR text: RJGG 161700Z 32025KT 9999 FEW020 19/14 Q1007 NOSIG
Conditions at: RJGG (NAGOYA/CHUBU , JP) observed 1700 UTC 16 June 2019
Temperature: 19.0°C (66°F)
Dewpoint: 14.0°C (57°F) [RH = 73%]
Pressure (altimeter): 29.73 inches Hg (1007.0 mb)
Winds: from the NW (320 degrees) at 29 MPH (25 knots; 12.9 m/s)
Visibility: 6 or more miles (10+ km)
Ceiling: at least 12,000 feet AGL
Clouds: few clouds at 2000 feet AGL
Weather: no significant weather observed at this time

METAR text: RJGG 161630Z 32023KT 9999 FEW020 19/14 Q1007 NOSIG
Conditions at: RJGG (NAGOYA/CHUBU , JP) observed 1630 UTC 16 June 2019
Temperature: 19.0°C (66°F)
Dewpoint: 14.0°C (57°F) [RH = 73%]
Pressure (altimeter): 29.73 inches Hg (1007.0 mb)
Winds: from the NW (320 degrees) at 26 MPH (23 knots; 11.8 m/s)
Visibility: 6 or more miles (10+ km)
Ceiling: at least 12,000 feet AGL
Clouds: few clouds at 2000 feet AGL
Weather: no significant weather observed at this time

METAR text: RJGG 161600Z 31022KT 9999 FEW020 SCT060 19/14 Q1007 NOSIG
Conditions at: RJGG (NAGOYA/CHUBU , JP) observed 1600 UTC 16 June 2019
Temperature: 19.0°C (66°F)
Dewpoint: 14.0°C (57°F) [RH = 73%]
Pressure (altimeter): 29.73 inches Hg (1007.0 mb)
Winds: from the NW (310 degrees) at 25 MPH (22 knots; 11.3 m/s)
Visibility: 6 or more miles (10+ km)
Ceiling: at least 12,000 feet AGL
Clouds: few clouds at 2000 feet AGL
scattered clouds at 6000 feet AGL
Weather: no significant weather observed at this time

METAR text: RJGG 161530Z 29021KT 9999 FEW020 SCT060 19/15 Q1007 NOSIG
Conditions at: RJGG (NAGOYA/CHUBU , JP) observed 1530 UTC 16 June 2019
Temperature: 19.0°C (66°F)
Dewpoint: 15.0°C (59°F) [RH = 78%]
Pressure (altimeter): 29.73 inches Hg (1007.0 mb)
Winds: from the WNW (290 degrees) at 24 MPH (21 knots; 10.8 m/s)
Visibility: 6 or more miles (10+ km)
Ceiling: at least 12,000 feet AGL
Clouds: few clouds at 2000 feet AGL
scattered clouds at 6000 feet AGL
Weather: no significant weather observed at this time

METAR text: RJGG 161500Z 28023KT 9999 FEW020 SCT060 19/15 Q1007 NOSIG
Conditions at: RJGG (NAGOYA/CHUBU , JP) observed 1500 UTC 16 June 2019
Temperature: 19.0°C (66°F)
Dewpoint: 15.0°C (59°F) [RH = 78%]
Pressure (altimeter): 29.73 inches Hg (1007.0 mb)
Winds: from the W (280 degrees) at 26 MPH (23 knots; 11.8 m/s)
Visibility: 6 or more miles (10+ km)
Ceiling: at least 12,000 feet AGL
Clouds: few clouds at 2000 feet AGL
scattered clouds at 6000 feet AGL
Weather: no significant weather observed at this time

METAR text: RJGG 161430Z 29025KT 9999 FEW020 19/15 Q1007 NOSIG
Conditions at: RJGG (NAGOYA/CHUBU , JP) observed 1430 UTC 16 June 2019
Temperature: 19.0°C (66°F)
Dewpoint: 15.0°C (59°F) [RH = 78%]
Pressure (altimeter): 29.73 inches Hg (1007.0 mb)
Winds: from the WNW (290 degrees) at 29 MPH (25 knots; 12.9 m/s)
Visibility: 6 or more miles (10+ km)
Ceiling: at least 12,000 feet AGL
Clouds: few clouds at 2000 feet AGL
Weather: no significant weather observed at this time

METAR text: RJGG 161400Z 29023KT 9999 FEW020 19/15 Q1006 NOSIG
Conditions at: RJGG (NAGOYA/CHUBU , JP) observed 1400 UTC 16 June 2019
Temperature: 19.0°C (66°F)
Dewpoint: 15.0°C (59°F) [RH = 78%]
Pressure (altimeter): 29.70 inches Hg (1006.0 mb)
Winds: from the WNW (290 degrees) at 26 MPH (23 knots; 11.8 m/s)
Visibility: 6 or more miles (10+ km)
Ceiling: at least 12,000 feet AGL
Clouds: few clouds at 2000 feet AGL
Weather: no significant weather observed at this time

METAR text: RJGG 161330Z 30023KT 9999 FEW020 20/15 Q1007 NOSIG
Conditions at: RJGG (NAGOYA/CHUBU , JP) observed 1330 UTC 16 June 2019
Temperature: 20.0°C (68°F)
Dewpoint: 15.0°C (59°F) [RH = 73%]
Pressure (altimeter): 29.73 inches Hg (1007.0 mb)
Winds: from the WNW (300 degrees) at 26 MPH (23 knots; 11.8 m/s)
Visibility: 6 or more miles (10+ km)
Ceiling: at least 12,000 feet AGL
Clouds: few clouds at 2000 feet AGL
Weather: no significant weather observed at this time

METAR text: RJGG 161300Z 30019KT 9999 FEW020 SCT060 20/14 Q1007 NOSIG
Conditions at: RJGG (NAGOYA/CHUBU , JP) observed 1300 UTC 16 June 2019
Temperature: 20.0°C (68°F)
Dewpoint: 14.0°C (57°F) [RH = 68%]
Pressure (altimeter): 29.73 inches Hg (1007.0 mb)
Winds: from the WNW (300 degrees) at 22 MPH (19 knots; 9.8 m/s)
Visibility: 6 or more miles (10+ km)
Ceiling: at least 12,000 feet AGL
Clouds: few clouds at 2000 feet AGL
scattered clouds at 6000 feet AGL
Weather: no significant weather observed at this time

METAR text: RJGG 161230Z 31019KT 9999 FEW020 20/14 Q1006 NOSIG
Conditions at: RJGG (NAGOYA/CHUBU , JP) observed 1230 UTC 16 June 2019
Temperature: 20.0°C (68°F)
Dewpoint: 14.0°C (57°F) [RH = 68%]
Pressure (altimeter): 29.70 inches Hg (1006.0 mb)
Winds: from the NW (310 degrees) at 22 MPH (19 knots; 9.8 m/s)
Visibility: 6 or more miles (10+ km)
Ceiling: at least 12,000 feet AGL
Clouds: few clouds at 2000 feet AGL
Weather: no significant weather observed at this time

METAR text: RJGG 161200Z 31024KT 9999 FEW020 21/14 Q1005 NOSIG
Conditions at: RJGG (NAGOYA/CHUBU , JP) observed 1200 UTC 16 June 2019
Temperature: 21.0°C (70°F)
Dewpoint: 14.0°C (57°F) [RH = 64%]
Pressure (altimeter): 29.68 inches Hg (1005.0 mb)
Winds: from the NW (310 degrees) at 28 MPH (24 knots; 12.3 m/s)
Visibility: 6 or more miles (10+ km)
Ceiling: at least 12,000 feet AGL
Clouds: few clouds at 2000 feet AGL
Weather: no significant weather observed at this time

METAR text: RJGG 161130Z 31029KT 9999 FEW020 20/14 Q1005 NOSIG
Conditions at: RJGG (NAGOYA/CHUBU , JP) observed 1130 UTC 16 June 2019
Temperature: 20.0°C (68°F)
Dewpoint: 14.0°C (57°F) [RH = 68%]
Pressure (altimeter): 29.68 inches Hg (1005.0 mb)
Winds: from the NW (310 degrees) at 33 MPH (29 knots; 14.9 m/s)
Visibility: 6 or more miles (10+ km)
Ceiling: at least 12,000 feet AGL
Clouds: few clouds at 2000 feet AGL
Weather: no significant weather observed at this time

METAR text: RJGG 161100Z 31027KT 9999 FEW020 20/15 Q1004 NOSIG
Conditions at: RJGG (NAGOYA/CHUBU , JP) observed 1100 UTC 16 June 2019
Temperature: 20.0°C (68°F)
Dewpoint: 15.0°C (59°F) [RH = 73%]
Pressure (altimeter): 29.65 inches Hg (1004.0 mb)
Winds: from the NW (310 degrees) at 31 MPH (27 knots; 13.9 m/s)
Visibility: 6 or more miles (10+ km)
Ceiling: at least 12,000 feet AGL
Clouds: few clouds at 2000 feet AGL
Weather: no significant weather observed at this time

METAR text: RJGG 161030Z 32027KT 9999 FEW020 SCT050 21/14 Q1004 NOSIG
Conditions at: RJGG (NAGOYA/CHUBU , JP) observed 1030 UTC 16 June 2019
Temperature: 21.0°C (70°F)
Dewpoint: 14.0°C (57°F) [RH = 64%]
Pressure (altimeter): 29.65 inches Hg (1004.0 mb)
Winds: from the NW (320 degrees) at 31 MPH (27 knots; 13.9 m/s)
Visibility: 6 or more miles (10+ km)
Ceiling: at least 12,000 feet AGL
Clouds: few clouds at 2000 feet AGL
scattered clouds at 5000 feet AGL
Weather: no significant weather observed at this time

METAR text: RJGG 161000Z 33025KT 9999 VCSH FEW020 SCT060 21/15 Q1004 NOSIG
Conditions at: RJGG (NAGOYA/CHUBU , JP) observed 1000 UTC 16 June 2019
Temperature: 21.0°C (70°F)
Dewpoint: 15.0°C (59°F) [RH = 69%]
Pressure (altimeter): 29.65 inches Hg (1004.0 mb)
Winds: from the NNW (330 degrees) at 29 MPH (25 knots; 12.9 m/s)
Visibility: 6 or more miles (10+ km)
Ceiling: at least 12,000 feet AGL
Clouds: few clouds at 2000 feet AGL
scattered clouds at 6000 feet AGL
Weather: VCSH  (showers in vicinity)

METAR text: RJGG 160930Z 32023KT 9999 FEW020 21/15 Q1003 NOSIG
Conditions at: RJGG (NAGOYA/CHUBU , JP) observed 0930 UTC 16 June 2019
Temperature: 21.0°C (70°F)
Dewpoint: 15.0°C (59°F) [RH = 69%]
Pressure (altimeter): 29.62 inches Hg (1003.0 mb)
Winds: from the NW (320 degrees) at 26 MPH (23 knots; 11.8 m/s)
Visibility: 6 or more miles (10+ km)
Ceiling: at least 12,000 feet AGL
Clouds: few clouds at 2000 feet AGL
Weather: no significant weather observed at this time

METAR text: RJGG 160900Z 32024KT 9999 FEW020 22/14 Q1003 NOSIG
Conditions at: RJGG (NAGOYA/CHUBU , JP) observed 0900 UTC 16 June 2019
Temperature: 22.0°C (72°F)
Dewpoint: 14.0°C (57°F) [RH = 60%]
Pressure (altimeter): 29.62 inches Hg (1003.0 mb)
Winds: from the NW (320 degrees) at 28 MPH (24 knots; 12.3 m/s)
Visibility: 6 or more miles (10+ km)
Ceiling: at least 12,000 feet AGL
Clouds: few clouds at 2000 feet AGL
Weather: no significant weather observed at this time

METAR text: RJGG 160830Z 32024KT 9999 FEW020 22/15 Q1002 NOSIG
Conditions at: RJGG (NAGOYA/CHUBU , JP) observed 0830 UTC 16 June 2019
Temperature: 22.0°C (72°F)
Dewpoint: 15.0°C (59°F) [RH = 65%]
Pressure (altimeter): 29.59 inches Hg (1002.0 mb)
Winds: from the NW (320 degrees) at 28 MPH (24 knots; 12.3 m/s)
Visibility: 6 or more miles (10+ km)
Ceiling: at least 12,000 feet AGL
Clouds: few clouds at 2000 feet AGL
Weather: no significant weather observed at this time

METAR text: RJGG 160800Z 32021KT 9999 FEW020 SCT050 22/15 Q1002 NOSIG
Conditions at: RJGG (NAGOYA/CHUBU , JP) observed 0800 UTC 16 June 2019
Temperature: 22.0°C (72°F)
Dewpoint: 15.0°C (59°F) [RH = 65%]
Pressure (altimeter): 29.59 inches Hg (1002.0 mb)
Winds: from the NW (320 degrees) at 24 MPH (21 knots; 10.8 m/s)
Visibility: 6 or more miles (10+ km)
Ceiling: at least 12,000 feet AGL
Clouds: few clouds at 2000 feet AGL
scattered clouds at 5000 feet AGL
Weather: no significant weather observed at this time

METAR text: RJGG 160730Z 33020KT 9999 FEW020 BKN050 22/15 Q1002 NOSIG
Conditions at: RJGG (NAGOYA/CHUBU , JP) observed 0730 UTC 16 June 2019
Temperature: 22.0°C (72°F)
Dewpoint: 15.0°C (59°F) [RH = 65%]
Pressure (altimeter): 29.59 inches Hg (1002.0 mb)
Winds: from the NNW (330 degrees) at 23 MPH (20 knots; 10.3 m/s)
Visibility: 6 or more miles (10+ km)
Ceiling: 5000 feet AGL
Clouds: few clouds at 2000 feet AGL
broken clouds at 5000 feet AGL
Weather: no significant weather observed at this time

METAR text: RJGG 160700Z 32022KT 9999 FEW020 SCT050 22/15 Q1001 NOSIG
Conditions at: RJGG (NAGOYA/CHUBU , JP) observed 0700 UTC 16 June 2019
Temperature: 22.0°C (72°F)
Dewpoint: 15.0°C (59°F) [RH = 65%]
Pressure (altimeter): 29.56 inches Hg (1001.0 mb)
Winds: from the NW (320 degrees) at 25 MPH (22 knots; 11.3 m/s)
Visibility: 6 or more miles (10+ km)
Ceiling: at least 12,000 feet AGL
Clouds: few clouds at 2000 feet AGL
scattered clouds at 5000 feet AGL
Weather: no significant weather observed at this time

METAR text: RJGG 160630Z 33021KT 9999 FEW020 BKN050 22/15 Q1001 NOSIG
Conditions at: RJGG (NAGOYA/CHUBU , JP) observed 0630 UTC 16 June 2019
Temperature: 22.0°C (72°F)
Dewpoint: 15.0°C (59°F) [RH = 65%]
Pressure (altimeter): 29.56 inches Hg (1001.0 mb)
Winds: from the NNW (330 degrees) at 24 MPH (21 knots; 10.8 m/s)
Visibility: 6 or more miles (10+ km)
Ceiling: 5000 feet AGL
Clouds: few clouds at 2000 feet AGL
broken clouds at 5000 feet AGL
Weather: no significant weather observed at this time

METAR text: RJGG 160600Z 33024KT 9999 FEW020 BKN050 23/15 Q1001 NOSIG
Conditions at: RJGG (NAGOYA/CHUBU , JP) observed 0600 UTC 16 June 2019
Temperature: 23.0°C (73°F)
Dewpoint: 15.0°C (59°F) [RH = 61%]
Pressure (altimeter): 29.56 inches Hg (1001.0 mb)
Winds: from the NNW (330 degrees) at 28 MPH (24 knots; 12.3 m/s)
Visibility: 6 or more miles (10+ km)
Ceiling: 5000 feet AGL
Clouds: few clouds at 2000 feet AGL
broken clouds at 5000 feet AGL
Weather: no significant weather observed at this time

METAR text: RJGG 160530Z 34020KT 9999 FEW020 BKN045 22/15 Q1000 NOSIG
Conditions at: RJGG (NAGOYA/CHUBU , JP) observed 0530 UTC 16 June 2019
Temperature: 22.0°C (72°F)
Dewpoint: 15.0°C (59°F) [RH = 65%]
Pressure (altimeter): 29.53 inches Hg (1000.0 mb)
Winds: from the NNW (340 degrees) at 23 MPH (20 knots; 10.3 m/s)
Visibility: 6 or more miles (10+ km)
Ceiling: 4500 feet AGL
Clouds: few clouds at 2000 feet AGL
broken clouds at 4500 feet AGL
Weather: no significant weather observed at this time

METAR text: RJGG 160500Z 34016KT 9999 FEW020 BKN050 23/15 Q1000 NOSIG
Conditions at: RJGG (NAGOYA/CHUBU , JP) observed 0500 UTC 16 June 2019
Temperature: 23.0°C (73°F)
Dewpoint: 15.0°C (59°F) [RH = 61%]
Pressure (altimeter): 29.53 inches Hg (1000.0 mb)
Winds: from the NNW (340 degrees) at 18 MPH (16 knots; 8.2 m/s)
Visibility: 6 or more miles (10+ km)
Ceiling: 5000 feet AGL
Clouds: few clouds at 2000 feet AGL
broken clouds at 5000 feet AGL
Weather: no significant weather observed at this time

METAR text: RJGG 160430Z 33017KT 9999 FEW020 BKN050 23/15 Q1000 NOSIG
Conditions at: RJGG (NAGOYA/CHUBU , JP) observed 0430 UTC 16 June 2019
Temperature: 23.0°C (73°F)
Dewpoint: 15.0°C (59°F) [RH = 61%]
Pressure (altimeter): 29.53 inches Hg (1000.0 mb)
Winds: from the NNW (330 degrees) at 20 MPH (17 knots; 8.7 m/s)
Visibility: 6 or more miles (10+ km)
Ceiling: 5000 feet AGL
Clouds: few clouds at 2000 feet AGL
broken clouds at 5000 feet AGL
Weather: no significant weather observed at this time

METAR text: RJGG 160400Z 32019KT 9999 FEW020 SCT050 23/16 Q0999 NOSIG
Conditions at: RJGG (NAGOYA/CHUBU , JP) observed 0400 UTC 16 June 2019
Temperature: 23.0°C (73°F)
Dewpoint: 16.0°C (61°F) [RH = 65%]
Pressure (altimeter): 29.50 inches Hg (999.0 mb)
Winds: from the NW (320 degrees) at 22 MPH (19 knots; 9.8 m/s)
Visibility: 6 or more miles (10+ km)
Ceiling: at least 12,000 feet AGL
Clouds: few clouds at 2000 feet AGL
scattered clouds at 5000 feet AGL
Weather: no significant weather observed at this time

METAR text: RJGG 160330Z 32023KT 9999 FEW020 SCT050 23/16 Q0999 NOSIG
Conditions at: RJGG (NAGOYA/CHUBU , JP) observed 0330 UTC 16 June 2019
Temperature: 23.0°C (73°F)
Dewpoint: 16.0°C (61°F) [RH = 65%]
Pressure (altimeter): 29.50 inches Hg (999.0 mb)
Winds: from the NW (320 degrees) at 26 MPH (23 knots; 11.8 m/s)
Visibility: 6 or more miles (10+ km)
Ceiling: at least 12,000 feet AGL
Clouds: few clouds at 2000 feet AGL
scattered clouds at 5000 feet AGL
Weather: no significant weather observed at this time

METAR text: RJGG 160300Z 32022KT 9999 FEW020 SCT045 22/16 Q0999 NOSIG
Conditions at: RJGG (NAGOYA/CHUBU , JP) observed 0300 UTC 16 June 2019
Temperature: 22.0°C (72°F)
Dewpoint: 16.0°C (61°F) [RH = 69%]
Pressure (altimeter): 29.50 inches Hg (999.0 mb)
Winds: from the NW (320 degrees) at 25 MPH (22 knots; 11.3 m/s)
Visibility: 6 or more miles (10+ km)
Ceiling: at least 12,000 feet AGL
Clouds: few clouds at 2000 feet AGL
scattered clouds at 4500 feet AGL
Weather: no significant weather observed at this time

METAR text: RJGG 160230Z 31015KT 9999 FEW020 SCT045 22/16 Q0998 NOSIG
Conditions at: RJGG (NAGOYA/CHUBU , JP) observed 0230 UTC 16 June 2019
Temperature: 22.0°C (72°F)
Dewpoint: 16.0°C (61°F) [RH = 69%]
Pressure (altimeter): 29.47 inches Hg (998.0 mb)
Winds: from the NW (310 degrees) at 17 MPH (15 knots; 7.7 m/s)
Visibility: 6 or more miles (10+ km)
Ceiling: at least 12,000 feet AGL
Clouds: few clouds at 2000 feet AGL
scattered clouds at 4500 feet AGL
Weather: no significant weather observed at this time

METAR text: RJGG 160200Z 29021KT 9999 FEW020 SCT050 23/16 Q0998 NOSIG
Conditions at: RJGG (NAGOYA/CHUBU , JP) observed 0200 UTC 16 June 2019
Temperature: 23.0°C (73°F)
Dewpoint: 16.0°C (61°F) [RH = 65%]
Pressure (altimeter): 29.47 inches Hg (998.0 mb)
Winds: from the WNW (290 degrees) at 24 MPH (21 knots; 10.8 m/s)
Visibility: 6 or more miles (10+ km)
Ceiling: at least 12,000 feet AGL
Clouds: few clouds at 2000 feet AGL
scattered clouds at 5000 feet AGL
Weather: no significant weather observed at this time

METAR text: RJGG 160130Z 28019KT 9999 FEW015 SCT050 23/16 Q0998 NOSIG
Conditions at: RJGG (NAGOYA/CHUBU , JP) observed 0130 UTC 16 June 2019
Temperature: 23.0°C (73°F)
Dewpoint: 16.0°C (61°F) [RH = 65%]
Pressure (altimeter): 29.47 inches Hg (998.0 mb)
Winds: from the W (280 degrees) at 22 MPH (19 knots; 9.8 m/s)
Visibility: 6 or more miles (10+ km)
Ceiling: at least 12,000 feet AGL
Clouds: few clouds at 1500 feet AGL
scattered clouds at 5000 feet AGL
Weather: no significant weather observed at this time

METAR text: RJGG 160100Z 28024KT 9999 FEW015 SCT050 22/15 Q0998 NOSIG
Conditions at: RJGG (NAGOYA/CHUBU , JP) observed 0100 UTC 16 June 2019
Temperature: 22.0°C (72°F)
Dewpoint: 15.0°C (59°F) [RH = 65%]
Pressure (altimeter): 29.47 inches Hg (998.0 mb)
Winds: from the W (280 degrees) at 28 MPH (24 knots; 12.3 m/s)
Visibility: 6 or more miles (10+ km)
Ceiling: at least 12,000 feet AGL
Clouds: few clouds at 1500 feet AGL
scattered clouds at 5000 feet AGL
Weather: no significant weather observed at this time

METAR text: RJGG 160030Z 28020KT 9999 FEW015 SCT060 22/16 Q0997 NOSIG
Conditions at: RJGG (NAGOYA/CHUBU , JP) observed 0030 UTC 16 June 2019
Temperature: 22.0°C (72°F)
Dewpoint: 16.0°C (61°F) [RH = 69%]
Pressure (altimeter): 29.44 inches Hg (997.0 mb)
Winds: from the W (280 degrees) at 23 MPH (20 knots; 10.3 m/s)
Visibility: 6 or more miles (10+ km)
Ceiling: at least 12,000 feet AGL
Clouds: few clouds at 1500 feet AGL
scattered clouds at 6000 feet AGL
Weather: no significant weather observed at this time

METAR text: RJGG 160000Z 27025KT 9999 VCSH FEW010 SCT045 BKN050 22/16 Q0997 TEMPO 28034G44KT
Conditions at: RJGG (NAGOYA/CHUBU , JP) observed 0000 UTC 16 June 2019
Temperature: 22.0°C (72°F)
Dewpoint: 16.0°C (61°F) [RH = 69%]
Pressure (altimeter): 29.44 inches Hg (997.0 mb)
Winds: from the W (270 degrees) at 29 MPH (25 knots; 12.9 m/s)
Visibility: 6 or more miles (10+ km)
Ceiling: 5000 feet AGL
Clouds: few clouds at 1000 feet AGL
scattered clouds at 4500 feet AGL
broken clouds at 5000 feet AGL
Weather: VCSH  (showers in vicinity)

METAR text: RJGG 152330Z 27029KT 9999 FEW010 SCT050 21/16 Q0996 NOSIG
Conditions at: RJGG (NAGOYA/CHUBU , JP) observed 2330 UTC 15 June 2019
Temperature: 21.0°C (70°F)
Dewpoint: 16.0°C (61°F) [RH = 73%]
Pressure (altimeter): 29.41 inches Hg (996.0 mb)
Winds: from the W (270 degrees) at 33 MPH (29 knots; 14.9 m/s)
Visibility: 6 or more miles (10+ km)
Ceiling: at least 12,000 feet AGL
Clouds: few clouds at 1000 feet AGL
scattered clouds at 5000 feet AGL
Weather: no significant weather observed at this time

Forecast for: RJGG (NAGOYA/CHUBU , JP)
Text: TAF RJGG 170505Z 1706/1812 32012KT 9999 FEW030
Forecast period: 0600 UTC 17 June 2019 to 0000 UTC 18 June 2019
Forecast type: FROM: standard forecast or significant change
Winds: from the NW (320 degrees) at 14 MPH (12 knots; 6.2 m/s)
Visibility: 6 or more miles 10+ km)
Ceiling: at least 12,000 feet AGL
Clouds: few clouds at 3000 feet AGL
Weather: no significant weather forecast for this period
Text: BECMG 1800/1803 18010KT
Forecast period: 0000 to 1200 UTC 18 June 2019
Forecast type: BECOMING: Conditions expected to become as follows by 0300 UTC 18 June 2019
Winds: from the S (180 degrees) at 12 MPH (10 knots; 5.1 m/s)
Visibility: 6 or more miles 10+ km)
Ceiling: at least 12,000 feet AGL
Clouds: few clouds at 3000 feet AGL
Weather: no significant weather forecast for this period